createdAt,value
2022-09-10T00:01:41.700Z,18.73
2022-09-10T00:04:29.054Z,20.75
2022-09-10T00:07:14.344Z,18.90
2022-09-10T00:09:59.925Z,19.55
2022-09-10T00:12:48.144Z,15.77
2022-09-10T00:15:39.340Z,14.57
2022-09-10T00:18:24.844Z,16.08
2022-09-10T00:21:14.004Z,16.10
2022-09-10T00:24:00.780Z,15.55
2022-09-10T00:26:46.671Z,13.00
2022-09-10T00:29:32.361Z,13.88
2022-09-10T00:32:24.172Z,10.70
2022-09-10T00:35:09.549Z,9.40
2022-09-10T00:37:54.804Z,8.73
2022-09-10T00:40:41.567Z,7.70
2022-09-10T00:43:26.738Z,9.23
2022-09-10T00:46:12.614Z,9.40
2022-09-10T00:49:01.949Z,8.80
2022-09-10T00:51:49.383Z,8.65
2022-09-10T00:54:36.806Z,6.00
2022-09-10T00:57:26.650Z,6.38
2022-09-10T01:00:14.982Z,6.07
2022-09-10T01:03:06.109Z,5.20
2022-09-10T01:05:51.643Z,6.00
2022-09-10T01:08:37.605Z,7.93
2022-09-10T01:11:34.923Z,8.55
2022-09-10T01:14:45.616Z,7.93
2022-09-10T01:17:33.634Z,9.82
2022-09-10T01:20:40.951Z,9.95
2022-09-10T01:23:51.540Z,10.40
2022-09-10T01:27:12.885Z,13.15
2022-09-10T01:30:18.173Z,12.57
2022-09-10T01:33:32.483Z,11.45
2022-09-10T01:36:23.897Z,13.07
2022-09-10T01:39:09.408Z,14.20
2022-09-10T01:41:58.796Z,15.27
2022-09-10T01:44:50.820Z,14.15
2022-09-10T01:48:34.204Z,18.40
2022-09-10T01:52:06.159Z,17.95
2022-09-10T01:55:24.746Z,19.05
2022-09-10T01:58:23.231Z,23.42
2022-09-10T02:01:50.496Z,23.25
2022-09-10T02:04:37.603Z,26.08
2022-09-10T02:07:24.955Z,21.00
2022-09-10T02:10:11.841Z,25.63
2022-09-10T02:13:03.824Z,28.00
2022-09-10T02:16:19.986Z,32.05
2022-09-10T02:19:06.548Z,26.92
2022-09-10T02:21:53.452Z,26.55
2022-09-10T02:24:39.010Z,28.50
2022-09-10T02:27:24.550Z,25.75
2022-09-10T02:30:11.706Z,22.65
2022-09-10T02:32:57.943Z,21.05
2022-09-10T02:35:45.120Z,22.35
2022-09-10T02:38:30.590Z,18.13
2022-09-10T02:41:17.003Z,15.88
2022-09-10T02:44:04.533Z,17.23
2022-09-10T02:46:55.160Z,18.02
2022-09-10T02:49:41.052Z,18.00
2022-09-10T02:52:29.121Z,17.10
2022-09-10T02:55:14.652Z,24.33
2022-09-10T02:58:01.031Z,24.45
2022-09-10T03:00:47.425Z,27.83
2022-09-10T03:03:33.159Z,34.33
2022-09-10T03:06:19.082Z,31.02
2022-09-10T03:09:04.816Z,36.40
2022-09-10T03:11:51.276Z,39.00
2022-09-10T03:14:37.763Z,40.53
2022-09-10T03:17:27.449Z,41.20
2022-09-10T03:20:14.597Z,42.58
2022-09-10T03:23:01.398Z,34.72
2022-09-10T03:25:49.905Z,35.22
2022-09-10T03:28:39.981Z,34.08
2022-09-10T03:31:30.931Z,30.20
2022-09-10T03:34:16.812Z,30.40
2022-09-10T03:37:03.836Z,29.48
2022-09-10T03:39:53.820Z,23.90
2022-09-10T03:42:39.265Z,23.35
2022-09-10T03:45:25.421Z,20.52
2022-09-10T03:48:11.250Z,19.65
2022-09-10T03:50:57.186Z,16.67
2022-09-10T03:53:43.539Z,16.60
2022-09-10T03:56:33.288Z,16.42
2022-09-10T03:59:18.916Z,17.10
2022-09-10T04:02:05.348Z,15.40
2022-09-10T04:04:51.147Z,13.10
2022-09-10T04:07:37.193Z,12.80
2022-09-10T04:10:25.200Z,12.77
2022-09-10T04:13:14.013Z,9.90
2022-09-10T04:16:03.247Z,9.77
2022-09-10T04:18:51.209Z,10.85
2022-09-10T04:21:36.572Z,12.18
2022-09-10T04:24:22.194Z,10.43
2022-09-10T04:27:08.275Z,11.75
2022-09-10T04:29:54.454Z,12.00
2022-09-10T04:32:39.920Z,11.32
2022-09-10T04:35:26.728Z,10.05
2022-09-10T04:38:12.035Z,11.52
2022-09-10T04:41:00.887Z,12.88
2022-09-10T04:43:46.824Z,13.00
2022-09-10T04:46:32.744Z,11.02
2022-09-10T04:49:19.638Z,12.23
2022-09-10T04:52:05.032Z,11.82
2022-09-10T04:54:50.594Z,10.60
2022-09-10T04:57:36.379Z,10.80
2022-09-10T05:00:22.632Z,11.25
2022-09-10T05:03:08.091Z,12.40
2022-09-10T05:05:55.560Z,11.27
2022-09-10T05:08:41.568Z,12.77
2022-09-10T05:11:31.405Z,13.35
2022-09-10T05:14:16.621Z,14.98
2022-09-10T05:17:02.184Z,14.52
2022-09-10T05:19:49.253Z,15.70
2022-09-10T05:22:40.362Z,15.65
2022-09-10T05:25:31.979Z,17.17
2022-09-10T05:28:17.931Z,18.17
2022-09-10T05:31:03.660Z,18.23
2022-09-10T05:33:49.052Z,16.88
2022-09-10T05:36:34.885Z,18.73
2022-09-10T05:39:20.241Z,18.60
2022-09-10T05:42:07.143Z,19.35
2022-09-10T05:44:59.329Z,19.85
2022-09-10T05:47:45.620Z,19.92
2022-09-10T05:50:35.660Z,20.55
2022-09-10T05:53:22.588Z,19.02
2022-09-10T05:56:09.221Z,18.45
2022-09-10T05:59:00.138Z,21.15
2022-09-10T06:01:45.815Z,20.90
2022-09-10T06:04:31.103Z,21.65
2022-09-10T06:07:17.591Z,20.80
2022-09-10T06:10:03.680Z,20.98
2022-09-10T06:12:55.747Z,21.48
2022-09-10T06:15:42.285Z,20.15
2022-09-10T06:18:28.575Z,21.38
2022-09-10T06:21:16.980Z,21.67
2022-09-10T06:24:04.592Z,23.00
2022-09-10T06:26:53.821Z,23.35
2022-09-10T06:29:41.233Z,21.40
2022-09-10T06:32:28.650Z,23.70
2022-09-10T06:35:14.471Z,22.98
2022-09-10T06:38:00.290Z,23.85
2022-09-10T06:41:00.557Z,23.02
2022-09-10T06:43:51.989Z,17.02
2022-09-10T06:47:35.812Z,21.42
2022-09-10T06:50:04.836Z,20.08
2022-09-10T06:52:54.196Z,19.88
2022-09-10T06:55:43.820Z,21.13
2022-09-10T06:58:31.805Z,21.83
2022-09-10T07:01:19.579Z,21.27
2022-09-10T07:04:12.065Z,11.82
2022-09-10T07:06:59.200Z,16.55
2022-09-10T07:09:44.416Z,14.57
2022-09-10T07:12:33.022Z,14.43
2022-09-10T07:15:20.233Z,11.60
2022-09-10T07:18:05.781Z,10.93
2022-09-10T07:20:55.231Z,8.52
2022-09-10T07:23:41.287Z,12.05
2022-09-10T07:26:27.640Z,11.27
2022-09-10T07:29:14.234Z,8.63
2022-09-10T07:32:05.318Z,9.25
2022-09-10T07:34:52.377Z,10.05
2022-09-10T07:37:39.563Z,9.10
2022-09-10T07:40:27.790Z,6.57
2022-09-10T07:43:13.388Z,7.45
2022-09-10T07:46:04.012Z,6.72
2022-09-10T07:48:57.569Z,8.75
2022-09-10T07:51:42.855Z,6.00
2022-09-10T07:54:28.713Z,4.93
2022-09-10T07:57:16.017Z,3.42
2022-09-10T08:00:01.800Z,2.90
2022-09-10T08:03:00.305Z,2.90
2022-09-10T08:05:47.093Z,3.30
2022-09-10T08:08:35.409Z,2.83
2022-09-10T08:11:22.245Z,22.98
2022-09-10T08:14:13.531Z,25.80
2022-09-10T08:17:01.477Z,32.00
2022-09-10T08:19:46.751Z,28.08
2022-09-10T08:22:32.375Z,29.80
2022-09-10T08:25:20.567Z,32.20
2022-09-10T08:28:06.015Z,31.52
2022-09-10T08:30:59.702Z,31.75
2022-09-10T08:33:50.540Z,30.67
2022-09-10T08:36:36.286Z,26.20
2022-09-10T08:39:21.932Z,27.48
2022-09-10T08:42:22.464Z,28.85
2022-09-10T08:45:19.397Z,28.85
2022-09-10T08:48:21.162Z,31.75
2022-09-10T08:51:18.708Z,30.13
2022-09-10T08:54:11.748Z,28.15
2022-09-10T08:57:00.500Z,27.77
2022-09-10T08:59:48.029Z,25.40
2022-09-10T09:02:52.459Z,24.13
2022-09-10T09:05:58.111Z,21.58
2022-09-10T09:08:50.482Z,21.25
2022-09-10T09:12:19.010Z,20.48
2022-09-10T09:15:10.833Z,20.10
2022-09-10T09:18:23.456Z,14.20
2022-09-10T09:21:17.074Z,14.02
2022-09-10T09:24:13.886Z,12.35
2022-09-10T09:27:16.894Z,11.07
2022-09-10T09:30:28.583Z,11.77
2022-09-10T09:33:18.406Z,10.02
2022-09-10T09:36:06.989Z,9.07
2022-09-10T09:38:55.687Z,9.55
2022-09-10T09:42:04.297Z,8.93
2022-09-10T09:45:03.577Z,8.45
2022-09-10T09:47:54.415Z,7.30
2022-09-10T09:50:43.713Z,7.47
2022-09-10T09:53:30.918Z,6.80
2022-09-10T09:56:30.280Z,7.55
2022-09-10T09:59:42.326Z,6.90
2022-09-10T10:02:30.633Z,6.28
2022-09-10T10:05:24.015Z,7.43
2022-09-10T10:08:34.239Z,8.77
2022-09-10T10:11:21.526Z,8.00
2022-09-10T10:14:20.211Z,7.60
2022-09-10T10:17:25.565Z,8.00
2022-09-10T10:23:31.035Z,7.18
2022-09-10T10:26:20.852Z,6.63
2022-09-10T10:29:17.025Z,6.30
2022-09-10T10:32:12.096Z,6.88
2022-09-10T10:35:25.621Z,4.95
2022-09-10T10:38:42.656Z,5.07
2022-09-10T10:42:04.490Z,5.60
2022-09-10T10:45:14.097Z,6.55
2022-09-10T10:48:33.876Z,6.75
2022-09-10T10:51:32.053Z,8.05
2022-09-10T10:54:37.444Z,9.00
2022-09-10T10:57:47.907Z,9.48
2022-09-10T11:00:56.776Z,7.50
2022-09-10T11:03:55.581Z,5.47
2022-09-10T11:06:45.354Z,4.82
2022-09-10T11:09:56.429Z,4.22
2022-09-10T11:13:02.530Z,4.55
2022-09-10T11:15:59.443Z,3.40
2022-09-10T11:18:56.378Z,3.80
2022-09-10T11:22:14.016Z,3.90
2022-09-10T11:25:28.278Z,3.97
2022-09-10T11:28:17.581Z,4.43
2022-09-10T11:31:18.961Z,4.00
2022-09-10T11:34:11.156Z,3.90
2022-09-10T11:37:10.635Z,4.03
2022-09-10T11:40:02.238Z,3.70
2022-09-10T11:42:53.043Z,3.45
2022-09-10T11:45:52.749Z,3.53
2022-09-10T11:48:46.323Z,3.60
2022-09-10T11:51:36.873Z,3.42
2022-09-10T11:54:34.869Z,3.78
2022-09-10T11:57:48.616Z,3.40
2022-09-10T12:00:51.039Z,3.20
2022-09-10T12:03:53.832Z,3.78
2022-09-10T12:06:55.056Z,3.08
2022-09-10T12:09:57.227Z,3.53
2022-09-10T12:12:46.231Z,2.65
2022-09-10T12:15:33.909Z,3.15
2022-09-10T12:18:22.930Z,2.90
2022-09-10T12:21:37.969Z,3.00
2022-09-10T12:24:33.820Z,3.15
2022-09-10T12:27:20.135Z,3.75
2022-09-10T12:30:24.594Z,3.60
2022-09-10T12:33:12.955Z,3.63
2022-09-10T12:35:58.351Z,3.78
2022-09-10T12:38:48.107Z,3.20
2022-09-10T12:41:36.288Z,3.30
2022-09-10T12:44:37.559Z,3.17
2022-09-10T12:47:40.837Z,4.15
2022-09-10T12:50:37.292Z,3.55
2022-09-10T12:53:55.371Z,3.55
2022-09-10T12:56:50.887Z,3.20
2022-09-10T13:00:30.217Z,2.88
2022-09-10T13:03:17.687Z,2.30
2022-09-10T13:06:05.457Z,2.80
2022-09-10T13:08:51.142Z,3.03
2022-09-10T13:11:36.771Z,2.83
2022-09-10T13:14:36.791Z,3.70
2022-09-10T13:17:37.155Z,2.88
2022-09-10T13:20:22.492Z,2.92
2022-09-10T13:23:11.259Z,3.38
2022-09-10T13:26:28.283Z,2.80
2022-09-10T13:29:38.371Z,2.72
2022-09-10T13:32:34.374Z,1.95
2022-09-10T13:35:41.304Z,2.03
2022-09-10T13:38:44.933Z,1.85
2022-09-10T13:41:54.427Z,1.80
2022-09-10T13:45:01.156Z,1.55
2022-09-10T13:47:48.302Z,1.60
2022-09-10T13:50:46.444Z,1.60
2022-09-10T13:53:34.176Z,1.60
2022-09-10T13:56:25.070Z,1.92
2022-09-10T13:59:28.215Z,1.75
2022-09-10T14:02:13.950Z,1.58
2022-09-10T14:04:59.372Z,1.52
2022-09-10T14:07:44.983Z,1.65
2022-09-10T14:10:32.140Z,1.60
2022-09-10T14:13:23.834Z,1.70
2022-09-10T14:16:13.564Z,1.58
2022-09-10T14:19:02.267Z,1.48
2022-09-10T14:21:49.743Z,1.58
2022-09-10T14:24:38.232Z,1.42
2022-09-10T14:27:36.676Z,2.10
2022-09-10T14:30:29.839Z,1.52
2022-09-10T14:33:29.506Z,1.20
2022-09-10T14:36:16.383Z,1.35
2022-09-10T14:39:04.824Z,1.67
2022-09-10T14:42:21.739Z,1.40
2022-09-10T14:45:39.307Z,1.90
2022-09-10T14:48:29.074Z,1.58
2022-09-10T14:51:18.500Z,1.13
2022-09-10T14:54:04.011Z,1.50
2022-09-10T14:56:49.660Z,1.30
2022-09-10T14:59:41.880Z,1.80
2022-09-10T15:02:28.204Z,1.70
2022-09-10T15:05:14.793Z,1.50
2022-09-10T15:08:00.144Z,1.70
2022-09-10T15:10:48.615Z,1.42
2022-09-10T15:13:39.490Z,1.48
2022-09-10T15:16:25.476Z,1.60
2022-09-10T15:19:11.808Z,1.08
2022-09-10T15:21:57.619Z,1.70
2022-09-10T15:25:08.173Z,1.30
2022-09-10T15:27:48.063Z,1.60
2022-09-10T15:30:36.054Z,1.80
2022-09-10T15:33:21.547Z,1.40
2022-09-10T15:36:07.564Z,1.38
2022-09-10T15:39:03.544Z,1.63
2022-09-10T15:41:48.732Z,1.80
2022-09-10T15:44:34.531Z,1.40
2022-09-10T15:47:19.929Z,1.50
2022-09-10T15:50:06.258Z,1.60
2022-09-10T15:52:51.841Z,1.40
2022-09-10T15:55:38.158Z,1.60
2022-09-10T15:58:24.008Z,1.30
2022-09-10T16:01:11.979Z,1.25
2022-09-10T16:04:00.030Z,1.40
2022-09-10T16:06:45.370Z,1.15
2022-09-10T16:09:30.680Z,1.45
2022-09-10T16:12:17.359Z,1.42
2022-09-10T16:15:03.195Z,1.30
2022-09-10T16:17:48.657Z,1.80
2022-09-10T16:20:33.762Z,1.48
2022-09-10T16:23:19.273Z,1.60
2022-09-10T16:26:06.043Z,1.70
2022-09-10T16:28:59.575Z,1.98
2022-09-10T16:31:45.983Z,1.80
2022-09-10T16:34:31.509Z,1.58
2022-09-10T16:37:17.355Z,1.65
2022-09-10T16:40:08.626Z,1.77
2022-09-10T16:42:54.503Z,1.55
2022-09-10T16:45:49.791Z,1.50
2022-09-10T16:48:36.951Z,1.63
2022-09-10T16:51:24.538Z,1.77
2022-09-10T16:54:14.179Z,1.83
2022-09-10T16:56:59.761Z,2.03
2022-09-10T16:59:45.256Z,1.85
2022-09-10T17:02:31.112Z,2.35
2022-09-10T17:05:17.563Z,2.28
2022-09-10T17:08:02.795Z,2.30
2022-09-10T17:10:48.784Z,2.10
2022-09-10T17:13:34.800Z,2.08
2022-09-10T17:16:30.533Z,1.70
2022-09-10T17:19:17.585Z,2.05
2022-09-10T17:22:02.844Z,1.50
2022-09-10T17:24:49.299Z,1.70
2022-09-10T17:27:37.463Z,1.60
2022-09-10T17:30:22.864Z,1.50
2022-09-10T17:33:08.039Z,1.80
2022-09-10T17:35:58.406Z,1.85
2022-09-10T17:38:44.492Z,2.30
2022-09-10T17:41:29.991Z,2.25
2022-09-10T17:44:18.472Z,2.60
2022-09-10T17:47:06.975Z,2.78
2022-09-10T17:49:52.549Z,2.97
2022-09-10T17:52:37.990Z,3.08
2022-09-10T17:55:24.706Z,3.42
2022-09-10T17:58:12.615Z,3.47
2022-09-10T18:01:00.232Z,3.05
2022-09-10T18:03:48.767Z,3.70
2022-09-10T18:06:37.662Z,4.38
2022-09-10T18:09:25.359Z,4.30
2022-09-10T18:12:10.696Z,4.22
2022-09-10T18:14:56.640Z,4.93
2022-09-10T18:17:42.047Z,4.95
2022-09-10T18:20:28.803Z,5.45
2022-09-10T18:23:13.966Z,5.18
2022-09-10T18:25:59.683Z,5.88
2022-09-10T18:28:56.411Z,5.25
2022-09-10T18:31:47.104Z,6.20
2022-09-10T18:34:36.769Z,5.82
2022-09-10T18:37:22.070Z,5.65
2022-09-10T18:40:09.447Z,5.80
2022-09-10T18:42:54.953Z,5.95
2022-09-10T18:45:40.371Z,6.30
2022-09-10T18:48:25.963Z,5.90
2022-09-10T18:51:12.769Z,6.55
2022-09-10T18:54:00.410Z,6.93
2022-09-10T18:56:48.041Z,6.40
2022-09-10T18:59:34.498Z,7.07
2022-09-10T19:02:20.999Z,6.85
2022-09-10T19:05:13.439Z,7.47
2022-09-10T19:07:59.523Z,7.85
2022-09-10T19:10:44.820Z,8.38
2022-09-10T19:13:31.635Z,7.78
2022-09-10T19:16:17.331Z,7.63
2022-09-10T19:19:06.024Z,7.70
2022-09-10T19:21:53.629Z,8.00
2022-09-10T19:24:55.630Z,8.35
2022-09-10T19:27:41.245Z,7.38
2022-09-10T19:30:26.649Z,7.47
2022-09-10T19:33:12.639Z,8.35
2022-09-10T19:36:05.883Z,8.48
2022-09-10T19:38:51.514Z,9.20
2022-09-10T19:41:41.583Z,9.15
2022-09-10T19:44:27.970Z,9.23
2022-09-10T19:47:13.360Z,9.43
2022-09-10T19:49:59.003Z,9.60
2022-09-10T19:52:46.614Z,9.77
2022-09-10T19:55:34.724Z,9.30
2022-09-10T19:58:20.903Z,10.18
2022-09-10T20:01:21.970Z,10.45
2022-09-10T20:04:09.431Z,11.80
2022-09-10T20:06:54.968Z,12.25
2022-09-10T20:09:40.587Z,13.20
2022-09-10T20:12:25.900Z,12.35
2022-09-10T20:15:11.329Z,12.52
2022-09-10T20:17:56.991Z,12.65
2022-09-10T20:20:42.887Z,13.52
2022-09-10T20:23:28.255Z,12.98
2022-09-10T20:26:16.613Z,14.60
2022-09-10T20:29:16.577Z,12.85
2022-09-10T20:32:02.354Z,13.93
2022-09-10T20:34:47.400Z,13.23
2022-09-10T20:37:35.575Z,14.20
2022-09-10T20:40:20.952Z,14.63
2022-09-10T20:43:09.114Z,14.73
2022-09-10T20:45:54.261Z,15.07
2022-09-10T20:48:40.284Z,15.48
2022-09-10T20:51:25.878Z,15.13
2022-09-10T20:54:17.092Z,16.90
2022-09-10T20:57:05.136Z,18.08
2022-09-10T20:59:50.555Z,17.63
2022-09-10T21:02:36.380Z,17.92
2022-09-10T21:05:21.821Z,18.73
2022-09-10T21:08:06.983Z,19.65
2022-09-10T21:10:52.616Z,19.98
2022-09-10T21:13:45.007Z,20.83
2022-09-10T21:16:36.210Z,20.63
2022-09-10T21:19:22.351Z,21.48
2022-09-10T21:22:07.659Z,22.08
2022-09-10T21:24:53.389Z,22.17
2022-09-10T21:27:38.559Z,21.55
2022-09-10T21:30:24.284Z,22.80
2022-09-10T21:33:09.640Z,24.13
2022-09-10T21:36:03.526Z,24.30
2022-09-10T21:38:54.126Z,23.65
2022-09-10T21:41:42.588Z,24.05
2022-09-10T21:44:28.243Z,24.60
2022-09-10T21:47:14.462Z,23.27
2022-09-10T21:49:59.688Z,25.17
2022-09-10T21:52:45.336Z,22.20
2022-09-10T21:55:30.843Z,22.95
2022-09-10T21:58:16.062Z,24.00
2022-09-10T22:01:02.270Z,25.67
2022-09-10T22:03:49.221Z,26.55
2022-09-10T22:06:35.461Z,25.75
2022-09-10T22:09:21.281Z,23.83
2022-09-10T22:12:06.996Z,23.30
2022-09-10T22:14:52.193Z,24.85
2022-09-10T22:17:38.359Z,24.13
2022-09-10T22:20:23.805Z,25.60
2022-09-10T22:23:09.246Z,26.10
2022-09-10T22:25:55.016Z,24.85
2022-09-10T22:28:41.477Z,26.55
2022-09-10T22:31:32.035Z,25.17
2022-09-10T22:34:18.155Z,27.75
2022-09-10T22:37:03.767Z,28.27
2022-09-10T22:39:49.082Z,29.13
2022-09-10T22:42:34.378Z,29.73
2022-09-10T22:45:21.021Z,31.17
2022-09-10T22:48:09.096Z,31.55
2022-09-10T22:50:54.312Z,32.72
2022-09-10T22:53:41.365Z,33.53
2022-09-10T22:56:27.500Z,32.33
2022-09-10T22:59:14.525Z,35.65
2022-09-10T23:01:59.884Z,34.80
2022-09-10T23:04:45.411Z,35.83
2022-09-10T23:07:30.845Z,34.75
2022-09-10T23:10:16.789Z,36.20
2022-09-10T23:13:02.209Z,35.95
2022-09-10T23:15:47.398Z,36.58
2022-09-10T23:18:33.094Z,37.92
2022-09-10T23:21:19.520Z,38.58
2022-09-10T23:24:08.175Z,37.45
2022-09-10T23:26:54.180Z,36.67
2022-09-10T23:29:42.450Z,38.38
2022-09-10T23:32:28.519Z,39.22
2022-09-10T23:35:14.015Z,39.95
2022-09-10T23:37:59.708Z,37.28
2022-09-10T23:40:45.866Z,40.90
2022-09-10T23:43:32.452Z,42.58
2022-09-10T23:46:18.355Z,43.03
2022-09-10T23:49:04.595Z,41.80
2022-09-10T23:51:50.896Z,43.90
2022-09-10T23:54:36.601Z,48.17
2022-09-10T23:57:22.044Z,47.33
